sensor_id;sensor_type;location;lat;lon;timestamp;P1;durP1;ratioP1;P2;durP2;ratioP2
9388;SDS011;4734;52.778;6.798;2023-02-18T00:00:38;11.17;;;3.13;;
9388;SDS011;4734;52.778;6.798;2023-02-18T00:03:24;10.93;;;2.70;;
9388;SDS011;4734;52.778;6.798;2023-02-18T00:06:13;8.63;;;2.47;;
9388;SDS011;4734;52.778;6.798;2023-02-18T00:08:59;11.80;;;2.67;;
9388;SDS011;4734;52.778;6.798;2023-02-18T00:11:45;11.07;;;3.30;;
9388;SDS011;4734;52.778;6.798;2023-02-18T00:14:31;9.40;;;2.47;;
9388;SDS011;4734;52.778;6.798;2023-02-18T00:17:17;10.47;;;2.50;;
9388;SDS011;4734;52.778;6.798;2023-02-18T00:20:03;10.83;;;3.10;;
9388;SDS011;4734;52.778;6.798;2023-02-18T00:22:50;12.93;;;2.80;;
9388;SDS011;4734;52.778;6.798;2023-02-18T00:25:36;9.40;;;2.40;;
9388;SDS011;4734;52.778;6.798;2023-02-18T00:28:22;8.37;;;2.30;;
9388;SDS011;4734;52.778;6.798;2023-02-18T00:31:08;10.07;;;2.93;;
9388;SDS011;4734;52.778;6.798;2023-02-18T00:33:55;7.13;;;2.30;;
9388;SDS011;4734;52.778;6.798;2023-02-18T00:36:41;14.17;;;2.90;;
9388;SDS011;4734;52.778;6.798;2023-02-18T00:39:28;12.93;;;2.93;;
9388;SDS011;4734;52.778;6.798;2023-02-18T00:42:14;11.43;;;2.90;;
9388;SDS011;4734;52.778;6.798;2023-02-18T00:45:00;12.37;;;2.97;;
9388;SDS011;4734;52.778;6.798;2023-02-18T00:47:46;12.00;;;2.83;;
9388;SDS011;4734;52.778;6.798;2023-02-18T00:50:31;8.47;;;2.40;;
9388;SDS011;4734;52.778;6.798;2023-02-18T00:53:17;8.07;;;2.70;;
9388;SDS011;4734;52.778;6.798;2023-02-18T00:56:06;8.60;;;2.87;;
9388;SDS011;4734;52.778;6.798;2023-02-18T00:58:52;10.53;;;2.70;;
9388;SDS011;4734;52.778;6.798;2023-02-18T01:01:38;12.00;;;3.10;;
9388;SDS011;4734;52.778;6.798;2023-02-18T01:04:23;12.97;;;3.27;;
9388;SDS011;4734;52.778;6.798;2023-02-18T01:07:09;11.20;;;3.57;;
9388;SDS011;4734;52.778;6.798;2023-02-18T01:09:55;9.63;;;3.23;;
9388;SDS011;4734;52.778;6.798;2023-02-18T01:12:42;9.63;;;3.13;;
9388;SDS011;4734;52.778;6.798;2023-02-18T01:15:28;9.77;;;3.50;;
9388;SDS011;4734;52.778;6.798;2023-02-18T01:18:13;12.30;;;3.00;;
9388;SDS011;4734;52.778;6.798;2023-02-18T01:20:59;13.73;;;4.67;;
9388;SDS011;4734;52.778;6.798;2023-02-18T01:23:45;8.97;;;3.20;;
9388;SDS011;4734;52.778;6.798;2023-02-18T01:26:31;11.50;;;4.23;;
9388;SDS011;4734;52.778;6.798;2023-02-18T01:29:18;8.80;;;3.50;;
9388;SDS011;4734;52.778;6.798;2023-02-18T01:32:04;13.70;;;4.43;;
9388;SDS011;4734;52.778;6.798;2023-02-18T01:34:50;9.53;;;4.27;;
9388;SDS011;4734;52.778;6.798;2023-02-18T01:37:36;10.63;;;3.80;;
9388;SDS011;4734;52.778;6.798;2023-02-18T01:40:23;11.53;;;4.10;;
9388;SDS011;4734;52.778;6.798;2023-02-18T01:43:09;11.03;;;4.47;;
9388;SDS011;4734;52.778;6.798;2023-02-18T01:45:59;14.10;;;4.97;;
9388;SDS011;4734;52.778;6.798;2023-02-18T01:48:48;9.63;;;4.10;;
9388;SDS011;4734;52.778;6.798;2023-02-18T01:51:36;13.17;;;4.90;;
9388;SDS011;4734;52.778;6.798;2023-02-18T01:54:24;15.90;;;5.77;;
9388;SDS011;4734;52.778;6.798;2023-02-18T01:57:13;14.73;;;5.73;;
9388;SDS011;4734;52.778;6.798;2023-02-18T02:00:00;12.90;;;6.00;;
9388;SDS011;4734;52.778;6.798;2023-02-18T02:02:50;17.27;;;7.17;;
9388;SDS011;4734;52.778;6.798;2023-02-18T02:05:36;17.33;;;6.87;;
9388;SDS011;4734;52.778;6.798;2023-02-18T02:08:22;20.83;;;6.83;;
9388;SDS011;4734;52.778;6.798;2023-02-18T02:11:10;16.13;;;7.70;;
9388;SDS011;4734;52.778;6.798;2023-02-18T02:14:10;16.10;;;8.00;;
9388;SDS011;4734;52.778;6.798;2023-02-18T02:17:02;24.30;;;8.90;;
9388;SDS011;4734;52.778;6.798;2023-02-18T02:20:08;20.17;;;8.43;;
9388;SDS011;4734;52.778;6.798;2023-02-18T02:23:19;21.13;;;8.80;;
9388;SDS011;4734;52.778;6.798;2023-02-18T02:26:20;14.33;;;8.20;;
9388;SDS011;4734;52.778;6.798;2023-02-18T02:35:16;18.57;;;7.80;;
9388;SDS011;4734;52.778;6.798;2023-02-18T02:38:05;23.97;;;8.57;;
9388;SDS011;4734;52.778;6.798;2023-02-18T02:40:54;19.13;;;7.90;;
9388;SDS011;4734;52.778;6.798;2023-02-18T02:43:43;24.27;;;8.90;;
9388;SDS011;4734;52.778;6.798;2023-02-18T02:46:34;16.83;;;8.87;;
9388;SDS011;4734;52.778;6.798;2023-02-18T02:49:27;22.40;;;9.23;;
9388;SDS011;4734;52.778;6.798;2023-02-18T02:52:19;17.53;;;8.70;;
9388;SDS011;4734;52.778;6.798;2023-02-18T02:55:07;19.17;;;9.40;;
9388;SDS011;4734;52.778;6.798;2023-02-18T02:57:54;19.53;;;8.97;;
9388;SDS011;4734;52.778;6.798;2023-02-18T03:00:43;11.87;;;8.47;;
9388;SDS011;4734;52.778;6.798;2023-02-18T03:03:38;16.57;;;9.07;;
9388;SDS011;4734;52.778;6.798;2023-02-18T03:06:35;18.07;;;8.97;;
9388;SDS011;4734;52.778;6.798;2023-02-18T03:09:26;20.97;;;9.07;;
9388;SDS011;4734;52.778;6.798;2023-02-18T03:12:17;23.33;;;9.73;;
9388;SDS011;4734;52.778;6.798;2023-02-18T03:15:07;24.90;;;11.10;;
9388;SDS011;4734;52.778;6.798;2023-02-18T03:17:56;22.50;;;10.33;;
9388;SDS011;4734;52.778;6.798;2023-02-18T03:20:45;22.67;;;12.07;;
9388;SDS011;4734;52.778;6.798;2023-02-18T03:23:35;21.63;;;12.23;;
9388;SDS011;4734;52.778;6.798;2023-02-18T03:26:24;30.47;;;13.10;;
9388;SDS011;4734;52.778;6.798;2023-02-18T03:29:10;32.70;;;14.90;;
9388;SDS011;4734;52.778;6.798;2023-02-18T03:31:58;26.87;;;14.03;;
9388;SDS011;4734;52.778;6.798;2023-02-18T03:34:46;27.43;;;14.67;;
9388;SDS011;4734;52.778;6.798;2023-02-18T03:37:34;32.10;;;15.47;;
9388;SDS011;4734;52.778;6.798;2023-02-18T03:40:21;25.67;;;14.93;;
9388;SDS011;4734;52.778;6.798;2023-02-18T03:43:09;38.00;;;17.03;;
9388;SDS011;4734;52.778;6.798;2023-02-18T03:45:54;34.90;;;16.37;;
9388;SDS011;4734;52.778;6.798;2023-02-18T03:48:41;38.13;;;19.30;;
9388;SDS011;4734;52.778;6.798;2023-02-18T03:51:27;41.73;;;21.10;;
9388;SDS011;4734;52.778;6.798;2023-02-18T03:54:13;32.80;;;19.30;;
9388;SDS011;4734;52.778;6.798;2023-02-18T03:56:59;37.23;;;19.80;;
9388;SDS011;4734;52.778;6.798;2023-02-18T03:59:46;36.67;;;20.70;;
9388;SDS011;4734;52.778;6.798;2023-02-18T04:02:31;36.70;;;20.67;;
9388;SDS011;4734;52.778;6.798;2023-02-18T04:05:17;46.77;;;25.13;;
9388;SDS011;4734;52.778;6.798;2023-02-18T04:08:03;45.40;;;23.10;;
9388;SDS011;4734;52.778;6.798;2023-02-18T04:10:49;43.60;;;21.67;;
9388;SDS011;4734;52.778;6.798;2023-02-18T04:13:35;50.60;;;24.70;;
9388;SDS011;4734;52.778;6.798;2023-02-18T04:16:22;44.83;;;23.00;;
9388;SDS011;4734;52.778;6.798;2023-02-18T04:19:08;41.07;;;21.87;;
9388;SDS011;4734;52.778;6.798;2023-02-18T04:21:54;47.97;;;27.03;;
9388;SDS011;4734;52.778;6.798;2023-02-18T04:24:40;39.60;;;23.33;;
9388;SDS011;4734;52.778;6.798;2023-02-18T04:27:26;47.50;;;26.27;;
9388;SDS011;4734;52.778;6.798;2023-02-18T04:30:12;46.77;;;25.47;;
9388;SDS011;4734;52.778;6.798;2023-02-18T04:32:59;56.97;;;28.23;;
9388;SDS011;4734;52.778;6.798;2023-02-18T04:35:45;53.37;;;27.97;;
9388;SDS011;4734;52.778;6.798;2023-02-18T04:38:30;58.33;;;29.23;;
9388;SDS011;4734;52.778;6.798;2023-02-18T04:41:16;56.33;;;27.97;;
9388;SDS011;4734;52.778;6.798;2023-02-18T04:44:02;50.50;;;27.30;;
9388;SDS011;4734;52.778;6.798;2023-02-18T04:46:47;52.03;;;27.47;;
9388;SDS011;4734;52.778;6.798;2023-02-18T04:49:35;60.83;;;28.73;;
9388;SDS011;4734;52.778;6.798;2023-02-18T04:52:20;53.20;;;27.37;;
9388;SDS011;4734;52.778;6.798;2023-02-18T04:55:06;53.00;;;27.80;;
9388;SDS011;4734;52.778;6.798;2023-02-18T04:57:52;54.83;;;27.37;;
9388;SDS011;4734;52.778;6.798;2023-02-18T05:00:38;57.60;;;27.43;;
9388;SDS011;4734;52.778;6.798;2023-02-18T05:03:23;60.55;;;28.33;;
9388;SDS011;4734;52.778;6.798;2023-02-18T05:06:10;61.87;;;28.37;;
9388;SDS011;4734;52.778;6.798;2023-02-18T05:08:56;55.20;;;26.37;;
9388;SDS011;4734;52.778;6.798;2023-02-18T05:11:42;55.07;;;26.00;;
9388;SDS011;4734;52.778;6.798;2023-02-18T05:14:28;58.50;;;26.23;;
9388;SDS011;4734;52.778;6.798;2023-02-18T05:17:14;57.73;;;25.40;;
9388;SDS011;4734;52.778;6.798;2023-02-18T05:19:59;59.23;;;26.60;;
9388;SDS011;4734;52.778;6.798;2023-02-18T05:22:47;62.22;;;24.63;;
9388;SDS011;4734;52.778;6.798;2023-02-18T05:25:32;56.55;;;25.60;;
9388;SDS011;4734;52.778;6.798;2023-02-18T05:28:18;61.23;;;27.20;;
9388;SDS011;4734;52.778;6.798;2023-02-18T05:31:03;61.45;;;24.63;;
9388;SDS011;4734;52.778;6.798;2023-02-18T05:33:49;58.70;;;23.30;;
9388;SDS011;4734;52.778;6.798;2023-02-18T05:36:35;64.60;;;25.87;;
9388;SDS011;4734;52.778;6.798;2023-02-18T05:39:22;65.93;;;27.70;;
9388;SDS011;4734;52.778;6.798;2023-02-18T05:42:08;64.67;;;24.83;;
9388;SDS011;4734;52.778;6.798;2023-02-18T05:44:53;79.30;;;25.13;;
9388;SDS011;4734;52.778;6.798;2023-02-18T05:47:39;69.23;;;22.90;;
9388;SDS011;4734;52.778;6.798;2023-02-18T05:50:25;73.33;;;23.90;;
9388;SDS011;4734;52.778;6.798;2023-02-18T05:53:11;64.00;;;23.33;;
9388;SDS011;4734;52.778;6.798;2023-02-18T05:55:58;69.63;;;23.07;;
9388;SDS011;4734;52.778;6.798;2023-02-18T05:58:43;58.80;;;22.33;;
9388;SDS011;4734;52.778;6.798;2023-02-18T06:01:29;77.90;;;21.77;;
9388;SDS011;4734;52.778;6.798;2023-02-18T06:04:15;53.08;;;20.08;;
9388;SDS011;4734;52.778;6.798;2023-02-18T06:07:01;58.47;;;18.30;;
9388;SDS011;4734;52.778;6.798;2023-02-18T06:09:46;52.23;;;18.23;;
9388;SDS011;4734;52.778;6.798;2023-02-18T06:12:34;50.53;;;18.40;;
9388;SDS011;4734;52.778;6.798;2023-02-18T06:15:20;54.10;;;18.27;;
9388;SDS011;4734;52.778;6.798;2023-02-18T06:18:05;53.25;;;17.33;;
9388;SDS011;4734;52.778;6.798;2023-02-18T06:20:51;55.95;;;17.88;;
9388;SDS011;4734;52.778;6.798;2023-02-18T06:23:37;45.10;;;16.73;;
9388;SDS011;4734;52.778;6.798;2023-02-18T06:26:23;50.17;;;17.50;;
9388;SDS011;4734;52.778;6.798;2023-02-18T06:29:10;50.30;;;18.73;;
9388;SDS011;4734;52.778;6.798;2023-02-18T06:31:56;56.63;;;18.85;;
9388;SDS011;4734;52.778;6.798;2023-02-18T06:34:42;38.57;;;13.83;;
9388;SDS011;4734;52.778;6.798;2023-02-18T06:37:28;34.97;;;13.53;;
9388;SDS011;4734;52.778;6.798;2023-02-18T06:40:14;25.90;;;11.73;;
9388;SDS011;4734;52.778;6.798;2023-02-18T06:43:00;30.47;;;10.57;;
9388;SDS011;4734;52.778;6.798;2023-02-18T06:45:48;20.00;;;9.30;;
9388;SDS011;4734;52.778;6.798;2023-02-18T06:48:34;22.15;;;9.10;;
9388;SDS011;4734;52.778;6.798;2023-02-18T06:51:20;18.63;;;8.80;;
9388;SDS011;4734;52.778;6.798;2023-02-18T06:54:06;13.47;;;6.73;;
9388;SDS011;4734;52.778;6.798;2023-02-18T06:56:52;15.30;;;7.00;;
9388;SDS011;4734;52.778;6.798;2023-02-18T06:59:37;13.00;;;6.27;;
9388;SDS011;4734;52.778;6.798;2023-02-18T07:02:24;8.73;;;6.43;;
9388;SDS011;4734;52.778;6.798;2023-02-18T07:05:10;11.63;;;6.40;;
9388;SDS011;4734;52.778;6.798;2023-02-18T07:07:56;10.95;;;6.10;;
9388;SDS011;4734;52.778;6.798;2023-02-18T07:10:42;11.43;;;7.63;;
9388;SDS011;4734;52.778;6.798;2023-02-18T07:13:28;9.20;;;5.97;;
9388;SDS011;4734;52.778;6.798;2023-02-18T07:16:14;12.47;;;7.40;;
9388;SDS011;4734;52.778;6.798;2023-02-18T07:19:01;14.10;;;7.63;;
9388;SDS011;4734;52.778;6.798;2023-02-18T07:21:47;15.43;;;9.87;;
9388;SDS011;4734;52.778;6.798;2023-02-18T07:24:33;20.85;;;10.55;;
9388;SDS011;4734;52.778;6.798;2023-02-18T07:27:19;14.20;;;10.05;;
9388;SDS011;4734;52.778;6.798;2023-02-18T07:30:05;19.25;;;11.73;;
9388;SDS011;4734;52.778;6.798;2023-02-18T07:32:51;17.85;;;11.20;;
9388;SDS011;4734;52.778;6.798;2023-02-18T07:35:38;20.33;;;10.43;;
9388;SDS011;4734;52.778;6.798;2023-02-18T07:38:25;17.02;;;10.80;;
9388;SDS011;4734;52.778;6.798;2023-02-18T07:41:13;22.40;;;13.05;;
9388;SDS011;4734;52.778;6.798;2023-02-18T07:44:01;20.80;;;13.60;;
9388;SDS011;4734;52.778;6.798;2023-02-18T07:46:47;19.42;;;12.05;;
9388;SDS011;4734;52.778;6.798;2023-02-18T07:49:34;20.30;;;12.25;;
9388;SDS011;4734;52.778;6.798;2023-02-18T07:52:21;20.90;;;11.75;;
9388;SDS011;4734;52.778;6.798;2023-02-18T07:55:07;19.63;;;10.93;;
9388;SDS011;4734;52.778;6.798;2023-02-18T07:57:53;20.23;;;10.65;;
9388;SDS011;4734;52.778;6.798;2023-02-18T08:00:43;21.15;;;11.55;;
9388;SDS011;4734;52.778;6.798;2023-02-18T08:03:30;13.55;;;9.30;;
9388;SDS011;4734;52.778;6.798;2023-02-18T08:06:19;13.48;;;8.10;;
9388;SDS011;4734;52.778;6.798;2023-02-18T08:09:07;16.10;;;10.88;;
9388;SDS011;4734;52.778;6.798;2023-02-18T08:11:53;16.98;;;9.20;;
9388;SDS011;4734;52.778;6.798;2023-02-18T08:14:38;12.52;;;8.63;;
9388;SDS011;4734;52.778;6.798;2023-02-18T08:17:25;15.13;;;8.50;;
9388;SDS011;4734;52.778;6.798;2023-02-18T08:20:11;14.25;;;9.00;;
9388;SDS011;4734;52.778;6.798;2023-02-18T08:22:57;15.25;;;8.00;;
9388;SDS011;4734;52.778;6.798;2023-02-18T08:25:45;17.42;;;9.18;;
9388;SDS011;4734;52.778;6.798;2023-02-18T08:28:31;15.88;;;8.23;;
9388;SDS011;4734;52.778;6.798;2023-02-18T08:31:18;11.68;;;6.68;;
9388;SDS011;4734;52.778;6.798;2023-02-18T08:34:04;12.30;;;8.10;;
9388;SDS011;4734;52.778;6.798;2023-02-18T08:36:51;13.48;;;7.05;;
9388;SDS011;4734;52.778;6.798;2023-02-18T08:39:37;16.65;;;6.90;;
9388;SDS011;4734;52.778;6.798;2023-02-18T08:42:24;12.85;;;6.53;;
9388;SDS011;4734;52.778;6.798;2023-02-18T08:45:10;15.80;;;6.47;;
9388;SDS011;4734;52.778;6.798;2023-02-18T08:47:56;14.93;;;6.45;;
9388;SDS011;4734;52.778;6.798;2023-02-18T08:50:42;14.45;;;6.40;;
9388;SDS011;4734;52.778;6.798;2023-02-18T08:53:27;13.48;;;5.78;;
9388;SDS011;4734;52.778;6.798;2023-02-18T08:56:13;11.40;;;6.63;;
9388;SDS011;4734;52.778;6.798;2023-02-18T08:59:02;12.00;;;6.00;;
9388;SDS011;4734;52.778;6.798;2023-02-18T09:01:48;10.52;;;6.18;;
9388;SDS011;4734;52.778;6.798;2023-02-18T09:04:33;8.48;;;4.63;;
9388;SDS011;4734;52.778;6.798;2023-02-18T09:07:19;13.55;;;6.18;;
9388;SDS011;4734;52.778;6.798;2023-02-18T09:10:05;12.80;;;5.28;;
9388;SDS011;4734;52.778;6.798;2023-02-18T09:12:51;13.02;;;5.32;;
9388;SDS011;4734;52.778;6.798;2023-02-18T09:15:38;7.63;;;5.05;;
9388;SDS011;4734;52.778;6.798;2023-02-18T09:18:24;13.10;;;5.13;;
9388;SDS011;4734;52.778;6.798;2023-02-18T09:21:11;14.75;;;4.90;;
9388;SDS011;4734;52.778;6.798;2023-02-18T09:23:57;11.60;;;4.70;;
9388;SDS011;4734;52.778;6.798;2023-02-18T09:26:43;10.32;;;5.45;;
9388;SDS011;4734;52.778;6.798;2023-02-18T09:29:29;12.48;;;5.57;;
9388;SDS011;4734;52.778;6.798;2023-02-18T09:32:16;12.57;;;4.93;;
9388;SDS011;4734;52.778;6.798;2023-02-18T09:35:02;9.63;;;4.50;;
9388;SDS011;4734;52.778;6.798;2023-02-18T09:37:48;6.60;;;3.65;;
9388;SDS011;4734;52.778;6.798;2023-02-18T09:40:34;6.07;;;3.95;;
9388;SDS011;4734;52.778;6.798;2023-02-18T09:43:23;7.75;;;3.33;;
9388;SDS011;4734;52.778;6.798;2023-02-18T09:46:13;13.75;;;4.28;;
9388;SDS011;4734;52.778;6.798;2023-02-18T09:49:05;10.55;;;3.35;;
9388;SDS011;4734;52.778;6.798;2023-02-18T09:51:51;10.38;;;3.63;;
9388;SDS011;4734;52.778;6.798;2023-02-18T09:54:38;13.60;;;4.25;;
9388;SDS011;4734;52.778;6.798;2023-02-18T09:57:26;12.45;;;3.60;;
9388;SDS011;4734;52.778;6.798;2023-02-18T10:00:14;8.05;;;3.30;;
9388;SDS011;4734;52.778;6.798;2023-02-18T10:03:03;9.38;;;3.60;;
9388;SDS011;4734;52.778;6.798;2023-02-18T10:05:53;10.67;;;3.80;;
9388;SDS011;4734;52.778;6.798;2023-02-18T10:08:41;13.57;;;3.38;;
9388;SDS011;4734;52.778;6.798;2023-02-18T10:11:29;12.48;;;3.63;;
9388;SDS011;4734;52.778;6.798;2023-02-18T10:14:15;11.15;;;3.63;;
9388;SDS011;4734;52.778;6.798;2023-02-18T10:17:01;12.38;;;3.55;;
9388;SDS011;4734;52.778;6.798;2023-02-18T10:19:48;11.50;;;3.38;;
9388;SDS011;4734;52.778;6.798;2023-02-18T10:22:36;10.48;;;3.83;;
9388;SDS011;4734;52.778;6.798;2023-02-18T10:25:23;10.52;;;3.60;;
9388;SDS011;4734;52.778;6.798;2023-02-18T10:28:09;15.70;;;4.18;;
9388;SDS011;4734;52.778;6.798;2023-02-18T10:30:56;10.98;;;3.55;;
9388;SDS011;4734;52.778;6.798;2023-02-18T10:33:44;14.45;;;3.30;;
9388;SDS011;4734;52.778;6.798;2023-02-18T10:36:33;13.68;;;4.20;;
9388;SDS011;4734;52.778;6.798;2023-02-18T10:39:29;15.68;;;4.25;;
9388;SDS011;4734;52.778;6.798;2023-02-18T10:42:23;13.25;;;3.25;;
9388;SDS011;4734;52.778;6.798;2023-02-18T10:45:14;14.43;;;3.15;;
9388;SDS011;4734;52.778;6.798;2023-02-18T10:48:06;15.03;;;3.53;;
9388;SDS011;4734;52.778;6.798;2023-02-18T10:50:53;14.13;;;3.45;;
9388;SDS011;4734;52.778;6.798;2023-02-18T10:53:39;12.73;;;3.30;;
9388;SDS011;4734;52.778;6.798;2023-02-18T10:56:32;15.88;;;4.38;;
9388;SDS011;4734;52.778;6.798;2023-02-18T10:59:20;14.98;;;3.70;;
9388;SDS011;4734;52.778;6.798;2023-02-18T11:02:12;14.13;;;3.15;;
9388;SDS011;4734;52.778;6.798;2023-02-18T11:05:00;12.40;;;2.83;;
9388;SDS011;4734;52.778;6.798;2023-02-18T11:07:50;14.18;;;3.13;;
9388;SDS011;4734;52.778;6.798;2023-02-18T11:10:38;11.13;;;2.97;;
9388;SDS011;4734;52.778;6.798;2023-02-18T11:13:27;13.35;;;3.30;;
9388;SDS011;4734;52.778;6.798;2023-02-18T11:16:14;12.70;;;3.05;;
9388;SDS011;4734;52.778;6.798;2023-02-18T11:19:00;12.88;;;3.17;;
9388;SDS011;4734;52.778;6.798;2023-02-18T11:21:47;12.43;;;3.10;;
9388;SDS011;4734;52.778;6.798;2023-02-18T11:24:37;17.58;;;3.50;;
9388;SDS011;4734;52.778;6.798;2023-02-18T11:27:24;14.32;;;3.13;;
9388;SDS011;4734;52.778;6.798;2023-02-18T11:30:16;15.80;;;3.53;;
9388;SDS011;4734;52.778;6.798;2023-02-18T11:33:05;15.85;;;3.33;;
9388;SDS011;4734;52.778;6.798;2023-02-18T11:35:52;8.38;;;2.70;;
9388;SDS011;4734;52.778;6.798;2023-02-18T11:38:40;14.18;;;3.47;;
9388;SDS011;4734;52.778;6.798;2023-02-18T11:41:32;14.95;;;3.85;;
9388;SDS011;4734;52.778;6.798;2023-02-18T11:44:19;12.05;;;3.38;;
9388;SDS011;4734;52.778;6.798;2023-02-18T11:47:19;14.50;;;3.35;;
9388;SDS011;4734;52.778;6.798;2023-02-18T11:50:20;15.68;;;2.97;;
9388;SDS011;4734;52.778;6.798;2023-02-18T11:53:24;13.02;;;3.30;;
9388;SDS011;4734;52.778;6.798;2023-02-18T11:56:15;13.43;;;3.42;;
9388;SDS011;4734;52.778;6.798;2023-02-18T11:59:02;9.05;;;2.88;;
9388;SDS011;4734;52.778;6.798;2023-02-18T12:01:50;11.23;;;2.92;;
9388;SDS011;4734;52.778;6.798;2023-02-18T12:04:39;10.05;;;2.88;;
9388;SDS011;4734;52.778;6.798;2023-02-18T12:07:26;9.45;;;3.15;;
9388;SDS011;4734;52.778;6.798;2023-02-18T12:10:14;13.87;;;3.70;;
9388;SDS011;4734;52.778;6.798;2023-02-18T12:13:04;15.13;;;3.78;;
9388;SDS011;4734;52.778;6.798;2023-02-18T12:15:53;7.68;;;2.75;;
9388;SDS011;4734;52.778;6.798;2023-02-18T12:18:48;8.70;;;3.05;;
9388;SDS011;4734;52.778;6.798;2023-02-18T12:21:45;11.43;;;3.78;;
9388;SDS011;4734;52.778;6.798;2023-02-18T12:24:39;8.43;;;3.55;;
9388;SDS011;4734;52.778;6.798;2023-02-18T12:27:31;9.90;;;2.80;;
9388;SDS011;4734;52.778;6.798;2023-02-18T12:30:23;11.80;;;3.40;;
9388;SDS011;4734;52.778;6.798;2023-02-18T12:33:14;14.25;;;3.60;;
9388;SDS011;4734;52.778;6.798;2023-02-18T12:36:07;9.32;;;2.75;;
9388;SDS011;4734;52.778;6.798;2023-02-18T12:39:02;8.48;;;2.75;;
9388;SDS011;4734;52.778;6.798;2023-02-18T12:42:07;10.13;;;2.78;;
9388;SDS011;4734;52.778;6.798;2023-02-18T12:44:58;14.52;;;3.35;;
9388;SDS011;4734;52.778;6.798;2023-02-18T12:47:50;8.30;;;2.85;;
9388;SDS011;4734;52.778;6.798;2023-02-18T12:50:46;7.60;;;2.58;;
9388;SDS011;4734;52.778;6.798;2023-02-18T12:53:38;5.78;;;2.17;;
9388;SDS011;4734;52.778;6.798;2023-02-18T12:56:35;7.80;;;2.78;;
9388;SDS011;4734;52.778;6.798;2023-02-18T13:05:46;6.70;;;2.30;;
9388;SDS011;4734;52.778;6.798;2023-02-18T13:08:39;11.88;;;2.80;;
9388;SDS011;4734;52.778;6.798;2023-02-18T13:11:29;7.88;;;2.78;;
9388;SDS011;4734;52.778;6.798;2023-02-18T13:14:19;11.20;;;2.50;;
9388;SDS011;4734;52.778;6.798;2023-02-18T13:17:06;8.32;;;2.60;;
9388;SDS011;4734;52.778;6.798;2023-02-18T13:19:53;4.32;;;2.08;;
9388;SDS011;4734;52.778;6.798;2023-02-18T13:22:40;7.53;;;2.50;;
9388;SDS011;4734;52.778;6.798;2023-02-18T13:25:26;7.93;;;2.63;;
9388;SDS011;4734;52.778;6.798;2023-02-18T13:28:14;8.77;;;2.53;;
9388;SDS011;4734;52.778;6.798;2023-02-18T13:31:08;6.80;;;2.28;;
9388;SDS011;4734;52.778;6.798;2023-02-18T13:33:56;5.50;;;2.20;;
9388;SDS011;4734;52.778;6.798;2023-02-18T13:36:46;6.75;;;2.70;;
9388;SDS011;4734;52.778;6.798;2023-02-18T13:39:35;8.45;;;2.30;;
9388;SDS011;4734;52.778;6.798;2023-02-18T13:42:34;8.43;;;2.88;;
9388;SDS011;4734;52.778;6.798;2023-02-18T13:45:22;7.80;;;2.60;;
9388;SDS011;4734;52.778;6.798;2023-02-18T13:48:20;7.28;;;2.30;;
9388;SDS011;4734;52.778;6.798;2023-02-18T13:51:07;12.77;;;3.00;;
9388;SDS011;4734;52.778;6.798;2023-02-18T13:53:55;6.22;;;2.65;;
9388;SDS011;4734;52.778;6.798;2023-02-18T13:56:44;11.27;;;2.40;;
9388;SDS011;4734;52.778;6.798;2023-02-18T13:59:34;10.90;;;2.60;;
9388;SDS011;4734;52.778;6.798;2023-02-18T14:02:31;10.18;;;2.80;;
9388;SDS011;4734;52.778;6.798;2023-02-18T14:05:22;6.90;;;2.85;;
9388;SDS011;4734;52.778;6.798;2023-02-18T14:08:10;8.68;;;3.05;;
9388;SDS011;4734;52.778;6.798;2023-02-18T14:17:27;8.40;;;2.40;;
9388;SDS011;4734;52.778;6.798;2023-02-18T14:20:32;6.88;;;2.30;;
9388;SDS011;4734;52.778;6.798;2023-02-18T14:26:24;9.90;;;2.72;;
9388;SDS011;4734;52.778;6.798;2023-02-18T14:29:12;7.63;;;2.80;;
9388;SDS011;4734;52.778;6.798;2023-02-18T14:31:59;7.00;;;2.55;;
9388;SDS011;4734;52.778;6.798;2023-02-18T14:35:04;8.25;;;2.60;;
9388;SDS011;4734;52.778;6.798;2023-02-18T14:41:18;6.25;;;2.47;;
9388;SDS011;4734;52.778;6.798;2023-02-18T14:47:24;9.45;;;2.38;;
9388;SDS011;4734;52.778;6.798;2023-02-18T14:50:13;7.57;;;2.50;;
9388;SDS011;4734;52.778;6.798;2023-02-18T14:53:02;7.55;;;2.60;;
9388;SDS011;4734;52.778;6.798;2023-02-18T14:55:50;6.95;;;2.40;;
9388;SDS011;4734;52.778;6.798;2023-02-18T14:58:38;8.30;;;2.30;;
9388;SDS011;4734;52.778;6.798;2023-02-18T15:01:27;10.95;;;3.50;;
9388;SDS011;4734;52.778;6.798;2023-02-18T15:04:13;5.78;;;2.17;;
9388;SDS011;4734;52.778;6.798;2023-02-18T15:07:00;11.70;;;2.80;;
9388;SDS011;4734;52.778;6.798;2023-02-18T15:09:47;5.95;;;2.20;;
9388;SDS011;4734;52.778;6.798;2023-02-18T15:12:33;6.40;;;2.40;;
9388;SDS011;4734;52.778;6.798;2023-02-18T15:15:20;6.70;;;2.60;;
9388;SDS011;4734;52.778;6.798;2023-02-18T15:18:10;9.68;;;2.28;;
9388;SDS011;4734;52.778;6.798;2023-02-18T15:20:59;6.70;;;2.33;;
9388;SDS011;4734;52.778;6.798;2023-02-18T15:23:45;8.32;;;2.55;;
9388;SDS011;4734;52.778;6.798;2023-02-18T15:26:31;7.85;;;2.58;;
9388;SDS011;4734;52.778;6.798;2023-02-18T15:29:18;10.40;;;2.40;;
9388;SDS011;4734;52.778;6.798;2023-02-18T15:32:13;6.68;;;2.35;;
9388;SDS011;4734;52.778;6.798;2023-02-18T15:34:59;9.13;;;2.63;;
9388;SDS011;4734;52.778;6.798;2023-02-18T15:37:49;10.48;;;2.70;;
9388;SDS011;4734;52.778;6.798;2023-02-18T15:40:36;8.93;;;2.72;;
9388;SDS011;4734;52.778;6.798;2023-02-18T15:43:24;10.73;;;2.75;;
9388;SDS011;4734;52.778;6.798;2023-02-18T15:46:11;8.85;;;2.60;;
9388;SDS011;4734;52.778;6.798;2023-02-18T15:48:59;8.63;;;3.35;;
9388;SDS011;4734;52.778;6.798;2023-02-18T15:51:45;11.73;;;3.75;;
9388;SDS011;4734;52.778;6.798;2023-02-18T15:54:32;6.40;;;2.17;;
9388;SDS011;4734;52.778;6.798;2023-02-18T15:57:17;8.38;;;2.60;;
9388;SDS011;4734;52.778;6.798;2023-02-18T16:00:09;10.20;;;2.90;;
9388;SDS011;4734;52.778;6.798;2023-02-18T16:03:01;11.63;;;3.53;;
9388;SDS011;4734;52.778;6.798;2023-02-18T16:05:48;10.50;;;2.38;;
9388;SDS011;4734;52.778;6.798;2023-02-18T16:08:34;7.93;;;3.03;;
9388;SDS011;4734;52.778;6.798;2023-02-18T16:11:22;8.52;;;2.65;;
9388;SDS011;4734;52.778;6.798;2023-02-18T16:14:19;7.68;;;2.92;;
9388;SDS011;4734;52.778;6.798;2023-02-18T16:17:07;8.55;;;2.67;;
9388;SDS011;4734;52.778;6.798;2023-02-18T16:19:54;9.10;;;2.67;;
9388;SDS011;4734;52.778;6.798;2023-02-18T16:22:43;12.35;;;2.80;;
9388;SDS011;4734;52.778;6.798;2023-02-18T16:25:35;6.88;;;2.53;;
9388;SDS011;4734;52.778;6.798;2023-02-18T16:28:24;9.48;;;2.75;;
9388;SDS011;4734;52.778;6.798;2023-02-18T16:31:11;10.00;;;2.75;;
9388;SDS011;4734;52.778;6.798;2023-02-18T16:33:58;11.20;;;2.92;;
9388;SDS011;4734;52.778;6.798;2023-02-18T16:36:44;13.23;;;3.08;;
9388;SDS011;4734;52.778;6.798;2023-02-18T16:39:45;10.73;;;2.80;;
9388;SDS011;4734;52.778;6.798;2023-02-18T16:42:32;8.50;;;2.40;;
9388;SDS011;4734;52.778;6.798;2023-02-18T16:45:17;6.60;;;2.30;;
9388;SDS011;4734;52.778;6.798;2023-02-18T16:48:04;10.65;;;2.75;;
9388;SDS011;4734;52.778;6.798;2023-02-18T16:50:49;7.30;;;2.50;;
9388;SDS011;4734;52.778;6.798;2023-02-18T16:53:35;8.30;;;2.33;;
9388;SDS011;4734;52.778;6.798;2023-02-18T16:56:24;7.38;;;2.63;;
9388;SDS011;4734;52.778;6.798;2023-02-18T16:59:10;8.68;;;2.60;;
9388;SDS011;4734;52.778;6.798;2023-02-18T17:01:56;7.80;;;2.25;;
9388;SDS011;4734;52.778;6.798;2023-02-18T17:04:42;13.98;;;3.03;;
9388;SDS011;4734;52.778;6.798;2023-02-18T17:07:27;9.48;;;2.47;;
9388;SDS011;4734;52.778;6.798;2023-02-18T17:10:15;9.90;;;3.00;;
9388;SDS011;4734;52.778;6.798;2023-02-18T17:13:02;9.00;;;2.70;;
9388;SDS011;4734;52.778;6.798;2023-02-18T17:15:49;12.75;;;2.88;;
9388;SDS011;4734;52.778;6.798;2023-02-18T17:18:35;13.02;;;2.63;;
9388;SDS011;4734;52.778;6.798;2023-02-18T17:21:21;9.68;;;2.78;;
9388;SDS011;4734;52.778;6.798;2023-02-18T17:24:09;8.73;;;3.28;;
9388;SDS011;4734;52.778;6.798;2023-02-18T17:26:56;14.20;;;2.72;;
9388;SDS011;4734;52.778;6.798;2023-02-18T17:29:43;7.18;;;2.80;;
9388;SDS011;4734;52.778;6.798;2023-02-18T17:32:29;7.95;;;2.28;;
9388;SDS011;4734;52.778;6.798;2023-02-18T17:35:15;10.05;;;2.60;;
9388;SDS011;4734;52.778;6.798;2023-02-18T17:38:04;11.05;;;3.10;;